NOZ666 ENCN-EGSS
Flight info
| Callsign | NOZ666 |
|---|---|
| Flight time | N/A |
| Altitude | 34000 |
| Route | LANTI DCT UPGAS DCT TIPAN DCT WECOW DCT BINBO DCT AKOKO N866 KUBAX Z150 MEGEL |
| Aircraft | B738/M-SDE2E3FGHIRWXY/LB1 |
Departure
| Time | 2026-05-07 09:09 |
|---|---|
| Airport | Kristiansand Airport (ENCN) |
Arrival
| Time | N/A |
|---|---|
| Airport | London Stansted Airport (EGSS) |
| Time | Latitude | Longitude | Altitude | Speed | Heading |
|---|---|---|---|---|---|
| 2026-05-07 08:45 | 58.20246 | 8.07558 | 52 ft | 0 kts | 302° |
| 2026-05-07 09:03 | 58.20234 | 8.07593 | 55 ft | 4 kts | 298° |
| 2026-05-07 09:03 | 58.20226 | 8.07624 | 51 ft | 0 kts | 298° |
| 2026-05-07 09:06 | 58.20224 | 8.07614 | 53 ft | 2 kts | 243° |
| 2026-05-07 09:06 | 58.20201 | 8.07604 | 57 ft | 6 kts | 195° |
| 2026-05-07 09:06 | 58.20152 | 8.07558 | 53 ft | 10 kts | 210° |
| 2026-05-07 09:06 | 58.20076 | 8.07476 | 56 ft | 15 kts | 209° |
| 2026-05-07 09:07 | 58.19977 | 8.07367 | 57 ft | 17 kts | 201° |
| 2026-05-07 09:07 | 58.19865 | 8.07412 | 53 ft | 17 kts | 155° |
| 2026-05-07 09:07 | 58.19756 | 8.07476 | 55 ft | 16 kts | 162° |
| 2026-05-07 09:07 | 58.19704 | 8.07552 | 53 ft | 9 kts | 97° |
| 2026-05-07 09:08 | 58.19745 | 8.07636 | 57 ft | 9 kts | 33° |
| 2026-05-07 09:08 | 58.19905 | 8.07852 | 51 ft | 64 kts | 34° |
| 2026-05-07 09:08 | 58.20475 | 8.08607 | 56 ft | 133 kts | 34° |
| 2026-05-07 09:08 | 58.21393 | 8.09810 | 214 ft | 176 kts | 35° |
| 2026-05-07 09:09 | 58.22365 | 8.11078 | 1201 ft | 164 kts | 39° |
| 2026-05-07 09:09 | 58.23184 | 8.12742 | 1723 ft | 191 kts | 64° |
| 2026-05-07 09:09 | 58.23421 | 8.15401 | 2016 ft | 210 kts | 89° |
| 2026-05-07 09:09 | 58.23412 | 8.18112 | 2758 ft | 213 kts | 97° |
| 2026-05-07 09:10 | 58.22720 | 8.20693 | 3076 ft | 232 kts | 139° |
| 2026-05-07 09:10 | 58.21229 | 8.21849 | 3796 ft | 238 kts | 179° |
| 2026-05-07 09:10 | 58.19657 | 8.20997 | 4627 ft | 240 kts | 217° |
| 2026-05-07 09:10 | 58.18435 | 8.18871 | 5497 ft | 240 kts | 215° |
| 2026-05-07 09:11 | 58.16964 | 8.17315 | 6294 ft | 244 kts | 206° |
| 2026-05-07 09:11 | 58.15458 | 8.15801 | 7112 ft | 246 kts | 211° |
| 2026-05-07 09:11 | 58.13987 | 8.14129 | 7898 ft | 249 kts | 211° |
| 2026-05-07 09:11 | 58.12449 | 8.12556 | 8684 ft | 252 kts | 208° |
| 2026-05-07 09:12 | 58.10867 | 8.11069 | 9475 ft | 256 kts | 207° |
| 2026-05-07 09:12 | 58.09252 | 8.09594 | 10247 ft | 259 kts | 207° |
| 2026-05-07 09:12 | 58.07622 | 8.08119 | 10996 ft | 261 kts | 208° |
| 2026-05-07 09:12 | 58.05978 | 8.06636 | 11753 ft | 263 kts | 208° |
| 2026-05-07 09:13 | 58.04320 | 8.05141 | 12494 ft | 266 kts | 208° |
| 2026-05-07 09:13 | 58.02607 | 8.03576 | 12854 ft | 285 kts | 209° |
| 2026-05-07 09:13 | 58.00753 | 8.01871 | 13054 ft | 307 kts | 208° |
| 2026-05-07 09:13 | 57.98761 | 8.00043 | 13245 ft | 329 kts | 208° |
| 2026-05-07 09:14 | 57.96633 | 7.98095 | 13419 ft | 350 kts | 208° |
| 2026-05-07 09:14 | 57.94380 | 7.96039 | 13566 ft | 370 kts | 208° |
| 2026-05-07 09:14 | 57.92021 | 7.93892 | 13929 ft | 382 kts | 208° |
| 2026-05-07 09:14 | 57.89613 | 7.91708 | 14501 ft | 386 kts | 208° |
| 2026-05-07 09:15 | 57.87191 | 7.89513 | 15160 ft | 387 kts | 208° |
| 2026-05-07 09:15 | 57.84756 | 7.87309 | 15785 ft | 390 kts | 208° |
| 2026-05-07 09:15 | 57.82306 | 7.85091 | 16375 ft | 393 kts | 208° |
| 2026-05-07 09:15 | 57.79832 | 7.82853 | 16963 ft | 396 kts | 208° |
| 2026-05-07 09:16 | 57.77340 | 7.80603 | 17546 ft | 399 kts | 208° |
| 2026-05-07 09:16 | 57.74832 | 7.78316 | 18141 ft | 402 kts | 211° |
| 2026-05-07 09:16 | 57.72423 | 7.75658 | 18649 ft | 403 kts | 216° |
| 2026-05-07 09:16 | 57.70078 | 7.72761 | 19143 ft | 405 kts | 217° |
| 2026-05-07 09:17 | 57.67715 | 7.69857 | 19581 ft | 409 kts | 216° |
| 2026-05-07 09:17 | 57.65311 | 7.66955 | 19984 ft | 413 kts | 217° |
| 2026-05-07 09:17 | 57.63060 | 7.63624 | 20439 ft | 413 kts | 226° |
| 2026-05-07 09:17 | 57.61147 | 7.59742 | 20927 ft | 412 kts | 234° |
| 2026-05-07 09:18 | 57.59552 | 7.55317 | 21404 ft | 412 kts | 240° |
| 2026-05-07 09:18 | 57.58032 | 7.50768 | 21843 ft | 415 kts | 240° |
| 2026-05-07 09:18 | 57.56498 | 7.46201 | 22262 ft | 418 kts | 240° |
| 2026-05-07 09:18 | 57.54941 | 7.41619 | 22695 ft | 420 kts | 240° |
| 2026-05-07 09:19 | 57.53360 | 7.37012 | 23119 ft | 423 kts | 240° |
| 2026-05-07 09:19 | 57.51766 | 7.32399 | 23526 ft | 425 kts | 240° |
| 2026-05-07 09:19 | 57.50128 | 7.27796 | 23878 ft | 429 kts | 236° |
| 2026-05-07 09:19 | 57.48142 | 7.23616 | 24190 ft | 435 kts | 227° |
| 2026-05-07 09:20 | 57.45817 | 7.19967 | 24521 ft | 441 kts | 219° |
| 2026-05-07 09:20 | 57.43190 | 7.16939 | 24796 ft | 446 kts | 213° |
| 2026-05-07 09:20 | 57.40477 | 7.14098 | 25068 ft | 450 kts | 213° |
| 2026-05-07 09:20 | 57.37734 | 7.11260 | 25345 ft | 453 kts | 213° |
| 2026-05-07 09:21 | 57.34978 | 7.08410 | 25642 ft | 455 kts | 213° |
| 2026-05-07 09:21 | 57.32211 | 7.05538 | 25947 ft | 456 kts | 213° |
| 2026-05-07 09:21 | 57.29438 | 7.02645 | 26219 ft | 459 kts | 213° |
| 2026-05-07 09:21 | 57.26657 | 6.99736 | 26484 ft | 461 kts | 213° |
| 2026-05-07 09:22 | 57.23863 | 6.96809 | 26748 ft | 463 kts | 213° |
| 2026-05-07 09:22 | 57.21059 | 6.93873 | 27079 ft | 463 kts | 213° |
| 2026-05-07 09:22 | 57.18260 | 6.90946 | 27471 ft | 462 kts | 213° |
| 2026-05-07 09:22 | 57.15465 | 6.88029 | 27812 ft | 462 kts | 213° |
| 2026-05-07 09:23 | 57.12662 | 6.85106 | 28138 ft | 463 kts | 213° |
| 2026-05-07 09:23 | 57.09862 | 6.82194 | 28515 ft | 463 kts | 213° |
| 2026-05-07 09:23 | 57.07058 | 6.79282 | 28921 ft | 461 kts | 213° |
| 2026-05-07 09:23 | 57.04301 | 6.76425 | 29308 ft | 461 kts | 213° |
| 2026-05-07 09:24 | 57.01510 | 6.73537 | 29655 ft | 461 kts | 213° |
| 2026-05-07 09:24 | 56.98712 | 6.70646 | 30013 ft | 461 kts | 213° |
| 2026-05-07 09:24 | 56.95921 | 6.67769 | 30358 ft | 460 kts | 213° |
| 2026-05-07 09:24 | 56.93130 | 6.64896 | 30672 ft | 459 kts | 213° |
| 2026-05-07 09:25 | 56.90347 | 6.62037 | 30967 ft | 459 kts | 213° |
| 2026-05-07 09:25 | 56.87557 | 6.59174 | 31242 ft | 460 kts | 213° |
| 2026-05-07 09:25 | 56.84769 | 6.56319 | 31566 ft | 459 kts | 213° |
| 2026-05-07 09:25 | 56.81997 | 6.53486 | 31924 ft | 457 kts | 213° |
| 2026-05-07 09:26 | 56.79226 | 6.50658 | 32240 ft | 456 kts | 213° |
| 2026-05-07 09:26 | 56.76457 | 6.47838 | 32541 ft | 455 kts | 213° |
| 2026-05-07 09:26 | 56.73693 | 6.45026 | 32842 ft | 455 kts | 213° |
| 2026-05-07 09:26 | 56.70934 | 6.42225 | 33153 ft | 454 kts | 213° |
| 2026-05-07 09:27 | 56.68181 | 6.39434 | 33466 ft | 452 kts | 212° |
| 2026-05-07 09:27 | 56.65437 | 6.36657 | 33768 ft | 451 kts | 212° |
| 2026-05-07 09:27 | 56.59938 | 6.31106 | 34225 ft | 452 kts | 212° |
| 2026-05-07 09:28 | 56.57192 | 6.28341 | 34472 ft | 451 kts | 212° |
| 2026-05-07 09:28 | 56.54454 | 6.25590 | 34728 ft | 450 kts | 212° |
| 2026-05-07 09:28 | 56.51711 | 6.22838 | 34952 ft | 450 kts | 212° |
| 2026-05-07 09:28 | 56.48976 | 6.20097 | 35173 ft | 450 kts | 212° |
| 2026-05-07 09:29 | 56.46240 | 6.17361 | 35390 ft | 449 kts | 212° |
| 2026-05-07 09:29 | 56.43509 | 6.14634 | 35621 ft | 448 kts | 212° |
| 2026-05-07 09:29 | 56.40782 | 6.11916 | 35802 ft | 448 kts | 211° |
| 2026-05-07 09:29 | 56.38043 | 6.09189 | 35932 ft | 450 kts | 211° |
| 2026-05-07 09:30 | 56.35301 | 6.06465 | 36105 ft | 450 kts | 211° |
| 2026-05-07 09:30 | 56.32562 | 6.03748 | 36362 ft | 448 kts | 211° |
| 2026-05-07 09:30 | 56.30758 | 6.01961 | 36534 ft | 447 kts | 211° |
| 2026-05-07 09:30 | 56.28032 | 5.99265 | 36753 ft | 446 kts | 211° |
| 2026-05-07 09:31 | 56.25309 | 5.96577 | 36932 ft | 446 kts | 211° |
| 2026-05-07 09:31 | 56.21702 | 5.93021 | 37185 ft | 446 kts | 211° |
| 2026-05-07 09:31 | 56.18985 | 5.90348 | 37392 ft | 445 kts | 211° |
| 2026-05-07 09:31 | 56.17151 | 5.88547 | 37529 ft | 445 kts | 211° |
| 2026-05-07 09:32 | 56.13555 | 5.85019 | 37730 ft | 445 kts | 210° |
| 2026-05-07 09:32 | 56.09008 | 5.80569 | 38003 ft | 444 kts | 210° |
| 2026-05-07 09:32 | 56.06294 | 5.77919 | 38114 ft | 445 kts | 210° |
| 2026-05-07 09:33 | 56.03564 | 5.75258 | 38108 ft | 447 kts | 210° |
| 2026-05-07 09:33 | 55.98124 | 5.69968 | 38103 ft | 444 kts | 210° |
| 2026-05-07 09:34 | 55.92709 | 5.64720 | 38109 ft | 441 kts | 210° |
| 2026-05-07 09:34 | 55.87364 | 5.59555 | 38114 ft | 439 kts | 210° |
| 2026-05-07 09:35 | 55.81997 | 5.54386 | 38114 ft | 438 kts | 210° |
| 2026-05-07 09:35 | 55.76643 | 5.49244 | 38115 ft | 438 kts | 210° |
| 2026-05-07 09:36 | 55.71283 | 5.44113 | 38114 ft | 439 kts | 210° |
| 2026-05-07 09:36 | 55.65899 | 5.38976 | 38107 ft | 440 kts | 210° |
| 2026-05-07 09:37 | 55.60493 | 5.33834 | 38114 ft | 442 kts | 210° |
| 2026-05-07 09:37 | 55.55070 | 5.28692 | 38118 ft | 444 kts | 210° |
| 2026-05-07 09:38 | 55.49618 | 5.23539 | 38121 ft | 445 kts | 210° |
| 2026-05-07 09:38 | 55.44135 | 5.18373 | 38116 ft | 447 kts | 210° |
| 2026-05-07 09:39 | 55.38639 | 5.13210 | 38106 ft | 448 kts | 209° |